createdAt,value
2019-06-01T09:43:41.162Z,985.63
2019-06-01T09:44:16.854Z,985.60
2019-06-01T09:45:16.781Z,985.59
2019-06-01T09:46:16.704Z,985.60
2019-06-01T09:47:16.689Z,985.60
2019-06-01T09:48:16.556Z,985.60
2019-06-01T09:49:16.480Z,985.63
2019-06-01T09:50:16.404Z,985.59
2019-06-01T09:51:16.331Z,985.61
2019-06-01T09:52:16.283Z,985.56
2019-06-01T09:53:16.185Z,985.59
2019-06-01T09:54:16.105Z,985.58
2019-06-01T09:55:16.033Z,985.57
2019-06-01T09:56:15.949Z,985.55
2019-06-01T09:57:23.534Z,985.57
2019-06-01T09:59:20.204Z,985.55
2019-06-01T10:00:20.117Z,985.55
2019-06-01T10:02:24.418Z,985.56
2019-06-01T10:03:24.340Z,985.55
2019-06-01T10:05:28.659Z,985.54
2019-06-01T10:06:28.573Z,985.58
2019-06-01T10:08:21.829Z,985.54
2019-06-01T10:09:21.749Z,985.53
2019-06-01T10:11:26.065Z,985.48
2019-06-01T10:12:25.969Z,985.50
2019-06-01T10:14:30.287Z,985.49
2019-06-01T10:15:30.215Z,985.43
2019-06-01T10:17:35.122Z,985.44
2019-06-01T10:18:35.315Z,985.43
2019-06-01T10:19:34.646Z,985.43
2019-06-01T10:20:34.801Z,985.42
2019-06-01T10:21:34.205Z,985.40
2019-06-01T10:22:35.096Z,985.41
2019-06-01T10:23:34.580Z,985.41
2019-06-01T10:24:35.121Z,985.39
2019-06-01T10:25:34.457Z,985.41
2019-06-01T10:26:34.370Z,985.39
2019-06-01T10:27:34.504Z,985.38
2019-06-01T10:28:33.692Z,985.35
2019-06-01T10:29:34.627Z,985.37
2019-06-01T10:30:33.935Z,985.35
2019-06-01T10:31:35.253Z,985.39
2019-06-01T10:32:42.129Z,985.33
2019-06-01T10:34:37.805Z,985.36
2019-06-01T10:35:38.926Z,985.30
2019-06-01T10:37:41.938Z,985.28
2019-06-01T10:38:41.861Z,985.28
2019-06-01T10:40:46.183Z,985.28
2019-06-01T10:41:46.099Z,985.31
2019-06-01T10:43:50.411Z,985.28
2019-06-01T10:44:50.334Z,985.25
2019-06-01T10:46:54.680Z,985.25
2019-06-01T10:47:54.561Z,985.23
2019-06-01T10:49:58.873Z,985.19
2019-06-01T10:50:58.797Z,985.21
2019-06-01T10:52:52.044Z,985.17
2019-06-01T10:53:51.960Z,985.13
2019-06-01T10:55:56.276Z,985.16
2019-06-01T10:56:56.207Z,985.14
2019-06-01T10:59:00.795Z,985.15
2019-06-01T11:00:00.415Z,985.17
2019-06-01T11:02:04.740Z,985.12
2019-06-01T11:03:04.654Z,985.08
2019-06-01T11:05:08.968Z,985.08
2019-06-01T11:06:08.883Z,985.06
2019-06-01T11:08:13.189Z,985.05
2019-06-01T11:09:13.113Z,984.99
2019-06-01T11:11:17.430Z,985.00
2019-06-01T11:12:17.342Z,985.02
2019-06-01T11:13:17.270Z,985.02
2019-06-01T11:14:17.197Z,985.00
2019-06-01T11:15:17.127Z,984.99
2019-06-01T11:16:17.054Z,985.01
2019-06-01T11:17:16.979Z,985.02
2019-06-01T11:18:16.907Z,985.00
2019-06-01T11:19:16.835Z,985.02
2019-06-01T11:20:16.764Z,985.01
2019-06-01T11:21:16.681Z,984.98
2019-06-01T11:22:16.616Z,984.98
2019-06-01T11:23:16.539Z,984.94
2019-06-01T11:24:16.473Z,984.96
2019-06-01T11:25:16.398Z,984.95
2019-06-01T11:26:16.338Z,984.93
2019-06-01T11:27:16.253Z,984.91
2019-06-01T11:28:16.180Z,984.89
2019-06-01T11:29:16.110Z,984.88
2019-06-01T11:30:16.039Z,984.85
2019-06-01T11:31:15.961Z,984.89
2019-06-01T11:32:15.892Z,984.85
2019-06-01T11:33:15.818Z,984.89
2019-06-01T11:34:15.748Z,984.87
2019-06-01T11:35:15.676Z,984.86
2019-06-01T11:36:15.618Z,984.91
2019-06-01T11:37:16.011Z,984.87
2019-06-01T11:38:15.460Z,984.85
2019-06-01T11:39:15.388Z,984.88
2019-06-01T11:40:15.316Z,984.84
2019-06-01T11:41:18.540Z,984.85
2019-06-01T11:42:15.175Z,984.81
2019-06-01T11:43:15.109Z,984.84
2019-06-01T11:44:15.031Z,984.76
2019-06-01T11:45:14.951Z,984.76
2019-06-01T11:46:14.879Z,984.75
2019-06-01T11:47:14.972Z,984.76
2019-06-01T11:48:14.741Z,984.74
2019-06-01T11:49:14.671Z,984.72
2019-06-01T11:50:14.594Z,984.75
2019-06-01T11:51:14.531Z,984.73
2019-06-01T11:52:14.457Z,984.69
2019-06-01T11:53:14.388Z,984.67
2019-06-01T11:54:14.314Z,984.67
2019-06-01T11:55:14.243Z,984.60
2019-06-01T11:56:14.170Z,984.60
2019-06-01T11:57:14.100Z,984.59
2019-06-01T11:58:14.043Z,984.61
2019-06-01T11:59:13.959Z,984.61
2019-06-01T12:00:13.886Z,984.62
2019-06-01T12:01:13.814Z,984.57
2019-06-01T12:02:13.741Z,984.61
2019-06-01T12:03:13.669Z,984.58
2019-06-01T12:04:13.606Z,984.50
2019-06-01T12:05:13.581Z,984.62
2019-06-01T12:06:13.459Z,984.61
2019-06-01T12:07:17.690Z,984.57
2019-06-01T12:08:13.323Z,984.54
2019-06-01T12:09:13.253Z,984.53
2019-06-01T12:10:13.187Z,984.56
2019-06-01T12:11:13.112Z,984.55
2019-06-01T12:12:13.045Z,984.54
2019-06-01T12:13:12.975Z,984.53
2019-06-01T12:14:12.906Z,984.52
2019-06-01T12:15:12.858Z,984.48
2019-06-01T12:16:12.767Z,984.51
2019-06-01T12:17:12.695Z,984.49
2019-06-01T12:18:12.625Z,984.50
2019-06-01T12:19:12.559Z,984.47
2019-06-01T12:20:12.491Z,984.43
2019-06-01T12:21:12.412Z,984.45
2019-06-01T12:22:12.348Z,984.56
2019-06-01T12:23:12.282Z,984.52
2019-06-01T12:24:12.258Z,984.49
2019-06-01T12:25:12.141Z,984.39
2019-06-01T12:26:12.074Z,984.47
2019-06-01T12:27:12.005Z,984.43
2019-06-01T12:28:11.936Z,984.48
2019-06-01T12:29:11.872Z,984.46
2019-06-01T12:30:11.807Z,984.46
2019-06-01T12:31:11.739Z,984.46
2019-06-01T12:32:11.680Z,984.43
2019-06-01T12:33:11.613Z,984.46
2019-06-01T12:34:11.546Z,984.42
2019-06-01T12:35:11.486Z,984.40
2019-06-01T12:36:11.426Z,984.38
2019-06-01T12:37:11.361Z,984.37
2019-06-01T12:38:11.299Z,984.30
2019-06-01T12:39:11.241Z,984.29
2019-06-01T12:40:11.186Z,984.28
2019-06-01T12:41:11.118Z,984.29
2019-06-01T12:42:11.254Z,984.29
2019-06-01T12:43:11.001Z,984.32
2019-06-01T12:44:10.946Z,984.27
2019-06-01T12:45:10.894Z,984.29
2019-06-01T12:46:10.830Z,984.27
2019-06-01T12:47:10.771Z,984.25
2019-06-01T12:48:10.741Z,984.29
2019-06-01T12:49:10.660Z,984.25
2019-06-01T12:50:10.645Z,984.21
2019-06-01T12:51:10.542Z,984.24
2019-06-01T12:52:10.485Z,984.22
2019-06-01T12:53:10.427Z,984.21
2019-06-01T12:54:10.376Z,984.19
2019-06-01T12:55:10.317Z,984.19
2019-06-01T12:56:10.262Z,984.20
2019-06-01T12:57:10.199Z,984.19
2019-06-01T12:58:10.159Z,984.17
2019-06-01T12:59:10.096Z,984.11
2019-06-01T13:00:10.037Z,984.08
2019-06-01T13:01:09.981Z,984.14
2019-06-01T13:02:09.935Z,984.12
2019-06-01T13:03:09.874Z,984.10
2019-06-01T13:04:09.812Z,984.07
2019-06-01T13:05:09.758Z,983.99
2019-06-01T13:06:09.700Z,983.97
2019-06-01T13:07:09.644Z,983.95
2019-06-01T13:08:09.587Z,984.02
2019-06-01T13:09:09.530Z,983.97
2019-06-01T13:10:09.474Z,983.95
2019-06-01T13:11:09.413Z,983.96
2019-06-01T13:12:09.359Z,983.95
2019-06-01T13:13:09.294Z,983.91
2019-06-01T13:14:09.242Z,983.89
2019-06-01T13:15:09.171Z,983.89
2019-06-01T13:16:09.111Z,983.93
2019-06-01T13:17:09.057Z,983.91
2019-06-01T13:18:08.987Z,983.90
2019-06-01T13:19:08.922Z,983.96
2019-06-01T13:20:08.861Z,983.94
2019-06-01T13:21:08.802Z,983.86
2019-06-01T13:22:08.732Z,983.85
2019-06-01T13:23:08.670Z,983.82
2019-06-01T13:24:08.605Z,983.81
2019-06-01T13:25:08.540Z,983.79
2019-06-01T13:26:08.475Z,983.76
2019-06-01T13:27:08.414Z,983.75
2019-06-01T13:28:08.365Z,983.72
2019-06-01T13:29:08.282Z,983.71
2019-06-01T13:30:08.216Z,983.73
2019-06-01T13:31:08.153Z,983.69
2019-06-01T13:32:08.090Z,983.70
2019-06-01T13:33:08.022Z,983.64
2019-06-01T13:34:07.958Z,983.62
2019-06-01T13:35:07.901Z,983.59
2019-06-01T13:36:07.827Z,983.60
2019-06-01T13:37:07.755Z,983.61
2019-06-01T13:38:12.080Z,983.59
2019-06-01T13:39:07.630Z,983.61
2019-06-01T13:40:07.679Z,983.59
2019-06-01T13:41:07.494Z,983.61
2019-06-01T13:42:07.448Z,983.60
2019-06-01T13:43:07.364Z,983.60
2019-06-01T13:44:07.307Z,983.58
2019-06-01T13:45:07.236Z,983.55
2019-06-01T13:46:07.169Z,983.62
2019-06-01T13:47:07.106Z,983.60
2019-06-01T13:48:07.036Z,983.60
2019-06-01T13:49:06.970Z,983.59
2019-06-01T13:50:07.194Z,983.65
2019-06-01T13:51:06.840Z,983.61
2019-06-01T13:52:06.772Z,983.60
2019-06-01T13:53:06.705Z,983.58
2019-06-01T13:54:06.641Z,983.56
2019-06-01T13:55:06.575Z,983.56
2019-06-01T13:56:06.504Z,983.56
2019-06-01T13:57:06.442Z,983.57
2019-06-01T13:58:06.378Z,983.50
2019-06-01T13:59:06.311Z,983.50
2019-06-01T14:00:06.244Z,983.47
2019-06-01T14:01:06.178Z,983.48
2019-06-01T14:02:06.107Z,983.44
2019-06-01T14:03:06.038Z,983.45
2019-06-01T14:04:05.979Z,983.40
2019-06-01T14:05:05.928Z,983.58
2019-06-01T14:06:05.847Z,983.50
2019-06-01T14:07:05.828Z,983.57
2019-06-01T14:08:05.711Z,983.57
2019-06-01T14:09:05.651Z,983.53
2019-06-01T14:10:05.587Z,983.56
2019-06-01T14:11:05.523Z,983.57
2019-06-01T14:12:05.460Z,983.62
2019-06-01T14:13:05.640Z,983.55
2019-06-01T14:14:05.332Z,983.53
2019-06-01T14:15:05.321Z,983.49
2019-06-01T14:16:05.210Z,983.51
2019-06-01T14:17:05.151Z,983.51
2019-06-01T14:18:05.081Z,983.46
2019-06-01T14:19:06.843Z,983.47
2019-06-01T14:20:04.962Z,983.42
2019-06-01T14:21:04.914Z,983.38
2019-06-01T14:22:04.848Z,983.42
2019-06-01T14:23:04.786Z,983.45
2019-06-01T14:24:04.731Z,983.46
2019-06-01T14:25:12.749Z,983.44
2019-06-01T14:26:04.607Z,983.40
2019-06-01T14:27:04.550Z,983.39
2019-06-01T14:28:04.567Z,983.38
2019-06-01T14:29:04.426Z,983.30
2019-06-01T14:30:04.373Z,983.29
2019-06-01T14:31:04.324Z,983.27
2019-06-01T14:32:04.258Z,983.27
2019-06-01T14:33:04.197Z,983.27
2019-06-01T14:34:04.132Z,983.29
2019-06-01T14:35:04.081Z,983.29
2019-06-01T14:36:04.021Z,983.26
2019-06-01T14:37:03.964Z,983.26
2019-06-01T14:38:03.911Z,983.31
2019-06-01T14:39:03.856Z,983.31
2019-06-01T14:40:03.791Z,983.32
2019-06-01T14:41:03.732Z,983.27
2019-06-01T14:42:03.679Z,983.32
2019-06-01T14:43:03.621Z,983.28
2019-06-01T14:44:03.559Z,983.21
2019-06-01T14:45:03.506Z,983.27
2019-06-01T14:46:03.449Z,983.22
2019-06-01T14:47:05.980Z,983.23
2019-06-01T14:48:03.341Z,983.26
2019-06-01T14:49:03.279Z,983.24
2019-06-01T14:50:03.239Z,983.23
2019-06-01T14:51:03.166Z,983.24
2019-06-01T14:52:03.156Z,983.24
2019-06-01T14:53:03.058Z,983.22
2019-06-01T14:54:03.002Z,983.25
2019-06-01T14:55:02.944Z,983.22
2019-06-01T14:56:03.007Z,983.28
2019-06-01T14:57:02.830Z,983.24
2019-06-01T14:58:02.771Z,983.24
2019-06-01T14:59:02.720Z,983.23
2019-06-01T15:00:02.668Z,983.20
2019-06-01T15:01:02.612Z,983.19
2019-06-01T15:02:02.558Z,983.18
2019-06-01T15:03:02.503Z,983.16
2019-06-01T15:04:02.445Z,983.11
2019-06-01T15:05:02.390Z,983.09
2019-06-01T15:06:02.332Z,983.07
2019-06-01T15:07:02.279Z,983.13
2019-06-01T15:08:02.230Z,983.09
2019-06-01T15:09:17.993Z,983.08
2019-06-01T15:10:02.113Z,983.12
2019-06-01T15:11:02.057Z,983.16
2019-06-01T15:12:02.036Z,983.13
2019-06-01T15:13:03.385Z,983.10
2019-06-01T15:14:01.892Z,983.14
2019-06-01T15:15:02.944Z,983.12
2019-06-01T15:16:02.059Z,983.13
2019-06-01T15:17:02.341Z,983.08
2019-06-01T15:18:05.084Z,982.88
2019-06-01T15:19:02.123Z,983.08
2019-06-01T15:20:02.697Z,983.08
2019-06-01T15:21:02.201Z,983.02
2019-06-01T15:22:03.358Z,983.02
2019-06-01T15:23:03.434Z,983.04
2019-06-01T15:24:02.349Z,982.99
2019-06-01T15:25:03.448Z,982.99
2019-06-01T15:26:01.211Z,982.96
2019-06-01T15:27:01.188Z,982.93
2019-06-01T15:28:01.097Z,982.94
2019-06-01T15:29:01.038Z,982.88
2019-06-01T15:30:00.986Z,982.94
2019-06-01T15:31:00.927Z,982.94
2019-06-01T15:32:02.157Z,982.93
2019-06-01T15:33:00.811Z,982.94
2019-06-01T15:34:01.815Z,982.88
2019-06-01T15:35:00.693Z,982.91
2019-06-01T15:36:01.854Z,982.86
2019-06-01T15:37:01.767Z,982.88
2019-06-01T15:38:02.160Z,982.89
2019-06-01T15:39:00.465Z,982.88
2019-06-01T15:40:00.407Z,982.82
2019-06-01T15:41:00.598Z,982.89
2019-06-01T15:42:01.349Z,982.83
2019-06-01T15:43:01.417Z,982.85
2019-06-01T15:44:01.239Z,982.82
2019-06-01T15:45:00.105Z,982.80
2019-06-01T15:46:00.041Z,982.77
2019-06-01T15:46:59.983Z,982.74
2019-06-01T15:47:59.921Z,982.74
2019-06-01T15:49:00.205Z,982.67
2019-06-01T15:50:00.097Z,982.67
2019-06-01T15:51:04.200Z,982.65
2019-06-01T15:51:59.881Z,982.68
2019-06-01T15:52:59.618Z,982.73
2019-06-01T15:53:59.554Z,982.68
2019-06-01T15:55:00.444Z,982.65
2019-06-01T15:55:59.433Z,982.68
2019-06-01T15:57:00.617Z,982.63
2019-06-01T15:57:59.306Z,982.64
2019-06-01T15:59:00.189Z,982.64
2019-06-01T15:59:59.180Z,982.62
2019-06-01T16:00:59.268Z,982.62
2019-06-01T16:01:59.331Z,982.60
2019-06-01T16:02:59.058Z,982.63
2019-06-01T16:03:59.348Z,982.62
2019-06-01T16:04:59.288Z,982.60
2019-06-01T16:05:59.176Z,982.57
2019-06-01T16:06:59.248Z,982.54
2019-06-01T16:07:59.333Z,982.59
2019-06-01T16:08:59.359Z,982.55
2019-06-01T16:09:59.376Z,982.55
2019-06-01T16:11:02.775Z,982.58
2019-06-01T16:11:59.620Z,982.57
2019-06-01T16:12:59.577Z,982.55
2019-06-01T16:13:59.526Z,982.55
2019-06-01T16:14:58.231Z,982.49
2019-06-01T16:15:58.802Z,982.51
2019-06-01T16:16:58.330Z,982.48
2019-06-01T16:17:58.041Z,982.46
2019-06-01T16:19:02.876Z,982.48
2019-06-01T16:19:57.935Z,982.49
2019-06-01T16:20:58.072Z,982.47
2019-06-01T16:21:58.138Z,982.47
2019-06-01T16:22:58.092Z,982.42
2019-06-01T16:23:58.281Z,982.43
2019-06-01T16:24:58.133Z,982.44
2019-06-01T16:26:07.248Z,982.40
2019-06-01T16:26:58.218Z,982.40
2019-06-01T16:27:58.643Z,982.39
2019-06-01T16:28:58.442Z,982.39
2019-06-01T16:29:57.255Z,982.39
2019-06-01T16:30:58.444Z,982.37
2019-06-01T16:31:58.575Z,982.38
2019-06-01T16:32:57.061Z,982.34
2019-06-01T16:33:56.997Z,982.35
2019-06-01T16:34:56.934Z,982.31
2019-06-01T16:35:56.986Z,982.28
2019-06-01T16:36:56.844Z,982.28
2019-06-01T16:37:56.871Z,982.29
2019-06-01T16:39:02.756Z,982.30
2019-06-01T16:40:02.747Z,982.30
2019-06-01T16:41:05.449Z,982.28
2019-06-01T16:43:01.591Z,982.27
2019-06-01T16:44:01.772Z,982.28
2019-06-01T16:45:01.682Z,982.27
2019-06-01T16:46:02.071Z,982.28
2019-06-01T16:47:02.341Z,982.26
2019-06-01T16:48:01.609Z,982.24
2019-06-01T16:49:01.514Z,982.24
2019-06-01T16:50:01.706Z,982.21
2019-06-01T16:51:00.323Z,982.20
2019-06-01T16:52:01.310Z,982.18
2019-06-01T16:53:00.286Z,982.17
2019-06-01T16:54:00.115Z,982.20
2019-06-01T16:55:00.491Z,982.18
2019-06-01T16:55:59.982Z,982.14
2019-06-01T16:56:59.913Z,982.19
2019-06-01T16:58:01.165Z,982.18
2019-06-01T16:59:00.179Z,982.17
2019-06-01T17:00:00.618Z,982.18
2019-06-01T17:01:00.447Z,982.19
2019-06-01T17:02:00.990Z,982.20
2019-06-01T17:03:00.595Z,982.20
2019-06-01T17:04:00.562Z,982.24
2019-06-01T17:05:00.440Z,982.21
2019-06-01T17:06:00.522Z,982.24
2019-06-01T17:06:59.246Z,982.22
2019-06-01T17:07:59.176Z,982.20
2019-06-01T17:08:59.108Z,982.22
2019-06-01T17:10:15.242Z,982.19
2019-06-01T17:10:58.980Z,982.21
2019-06-01T17:11:58.912Z,982.22
2019-06-01T17:13:00.235Z,982.20
2019-06-01T17:13:58.776Z,982.19
2019-06-01T17:14:58.913Z,982.19
2019-06-01T17:15:58.967Z,982.22
2019-06-01T17:16:59.004Z,982.22
2019-06-01T17:18:02.953Z,982.20
2019-06-01T17:18:58.979Z,982.21
2019-06-01T17:19:58.987Z,982.21
2019-06-01T17:20:59.185Z,982.21
2019-06-01T17:21:59.311Z,982.18
2019-06-01T17:22:59.468Z,982.16
2019-06-01T17:23:58.102Z,982.17
2019-06-01T17:24:58.033Z,982.17
2019-06-01T17:25:58.370Z,982.15
2019-06-01T17:26:57.911Z,982.14
2019-06-01T17:27:58.077Z,982.15
2019-06-01T17:28:58.026Z,982.13
2019-06-01T17:29:58.089Z,982.14
2019-06-01T17:30:58.396Z,982.18
2019-06-01T17:32:14.919Z,982.21
2019-06-01T17:32:58.190Z,982.18
2019-06-01T17:33:58.346Z,982.18
2019-06-01T17:34:58.544Z,982.20
2019-06-01T17:35:58.548Z,982.20
2019-06-01T17:36:58.287Z,982.17
2019-06-01T17:37:57.146Z,982.22
2019-06-01T17:38:57.084Z,982.19
2019-06-01T17:39:57.016Z,982.20
2019-06-01T17:40:56.943Z,982.20
2019-06-01T17:41:56.884Z,982.20
2019-06-01T17:42:56.821Z,982.19
2019-06-01T17:43:56.803Z,982.16
2019-06-01T17:44:56.678Z,982.14
2019-06-01T17:45:56.609Z,982.15
2019-06-01T17:46:56.542Z,982.13
2019-06-01T17:47:56.469Z,982.11
2019-06-01T17:48:56.407Z,982.13
2019-06-01T17:49:56.342Z,982.12
2019-06-01T17:50:56.278Z,982.15
2019-06-01T17:51:56.201Z,982.11
2019-06-01T17:52:56.134Z,982.12
2019-06-01T17:53:56.060Z,982.10
2019-06-01T17:54:55.997Z,982.08
2019-06-01T17:55:55.925Z,982.06
2019-06-01T17:56:55.889Z,982.06
2019-06-01T17:57:55.791Z,982.06
2019-06-01T17:58:55.728Z,982.08
2019-06-01T17:59:55.660Z,982.23
2019-06-01T18:00:55.592Z,982.46
2019-06-01T18:01:55.527Z,982.61
2019-06-01T18:02:55.448Z,982.50
2019-06-01T18:03:55.384Z,982.24
2019-06-01T18:04:55.313Z,982.08
2019-06-01T18:05:55.249Z,982.06
2019-06-01T18:06:55.180Z,982.01
2019-06-01T18:07:55.113Z,982.04
2019-06-01T18:08:55.037Z,982.04
2019-06-01T18:09:54.976Z,982.03
2019-06-01T18:10:55.245Z,982.06
2019-06-01T18:11:54.837Z,982.06
2019-06-01T18:12:54.812Z,982.03
2019-06-01T18:13:54.699Z,982.03
2019-06-01T18:14:54.630Z,981.99
2019-06-01T18:15:54.564Z,982.03
2019-06-01T18:16:54.493Z,982.03
2019-06-01T18:17:54.421Z,982.02
2019-06-01T18:18:54.356Z,982.01
2019-06-01T18:19:54.290Z,982.03
2019-06-01T18:20:54.296Z,982.03
2019-06-01T18:21:54.156Z,982.03
2019-06-01T18:22:54.082Z,982.04
2019-06-01T18:23:54.011Z,981.99
2019-06-01T18:24:53.943Z,981.97
2019-06-01T18:25:53.876Z,981.97
2019-06-01T18:26:53.802Z,981.94
2019-06-01T18:27:53.736Z,982.00
2019-06-01T18:28:53.666Z,981.96
2019-06-01T18:29:53.601Z,981.94
2019-06-01T18:30:53.532Z,981.97
2019-06-01T18:31:53.474Z,981.96
2019-06-01T18:32:53.392Z,981.99
2019-06-01T18:33:53.802Z,981.95
2019-06-01T18:34:53.251Z,981.96
2019-06-01T18:35:53.184Z,981.99
2019-06-01T18:36:53.113Z,981.95
2019-06-01T18:37:53.045Z,981.94
2019-06-01T18:38:52.980Z,981.97
2019-06-01T18:39:52.906Z,981.96
2019-06-01T18:41:08.399Z,981.98
2019-06-01T18:41:52.764Z,981.97
2019-06-01T18:42:52.702Z,982.01
2019-06-01T18:43:52.625Z,981.98
2019-06-01T18:44:52.558Z,981.97
2019-06-01T18:45:52.489Z,982.04
2019-06-01T18:46:52.417Z,981.97
2019-06-01T18:47:52.349Z,982.00
2019-06-01T18:48:52.276Z,981.99
2019-06-01T18:49:52.208Z,981.96
2019-06-01T18:50:52.141Z,981.99
2019-06-01T18:51:52.065Z,981.98
2019-06-01T18:52:52.013Z,981.99
2019-06-01T18:53:51.928Z,982.03
2019-06-01T18:54:51.866Z,982.05
2019-06-01T18:55:51.785Z,982.05
2019-06-01T18:57:00.500Z,982.06
2019-06-01T18:57:51.646Z,982.06
2019-06-01T18:58:51.581Z,982.07
2019-06-01T18:59:51.506Z,982.09
2019-06-01T19:00:51.435Z,982.09
2019-06-01T19:01:51.366Z,982.10
2019-06-01T19:02:51.331Z,982.08
2019-06-01T19:03:51.222Z,982.09
2019-06-01T19:04:51.154Z,982.07
2019-06-01T19:05:51.081Z,982.11
2019-06-01T19:06:51.015Z,982.08
2019-06-01T19:07:50.942Z,982.10
2019-06-01T19:08:50.867Z,982.15
2019-06-01T19:09:50.831Z,982.19
2019-06-01T19:10:51.029Z,982.17
2019-06-01T19:11:50.662Z,982.16
2019-06-01T19:12:50.592Z,982.15
2019-06-01T19:13:50.520Z,982.15
2019-06-01T19:14:50.446Z,982.17
2019-06-01T19:15:50.377Z,982.18
2019-06-01T19:16:50.308Z,982.18
2019-06-01T19:17:50.238Z,982.16
2019-06-01T19:18:50.164Z,982.14
2019-06-01T19:19:50.092Z,982.22
2019-06-01T19:20:50.020Z,982.16
2019-06-01T19:21:49.947Z,982.21
2019-06-01T19:22:49.883Z,982.22
2019-06-01T19:23:49.806Z,982.17
2019-06-01T19:24:49.736Z,982.21
2019-06-01T19:25:49.662Z,982.20
2019-06-01T19:26:49.594Z,982.22
2019-06-01T19:27:49.537Z,982.22
2019-06-01T19:28:49.449Z,982.25
2019-06-01T19:29:49.388Z,982.25
2019-06-01T19:30:49.312Z,982.26
2019-06-01T19:31:49.238Z,982.27
2019-06-01T19:32:49.163Z,982.27
2019-06-01T19:33:49.094Z,982.29
2019-06-01T19:34:49.027Z,982.29
2019-06-01T19:35:48.956Z,982.28
2019-06-01T19:36:48.883Z,982.31
2019-06-01T19:37:48.810Z,982.30
2019-06-01T19:38:48.739Z,982.31
2019-06-01T19:39:48.669Z,982.32
2019-06-01T19:40:48.590Z,982.29
2019-06-01T19:41:48.518Z,982.36
2019-06-01T19:42:48.449Z,982.35
2019-06-01T19:43:48.376Z,982.38
2019-06-01T19:44:48.319Z,982.32
2019-06-01T19:45:48.239Z,982.36
2019-06-01T19:46:48.161Z,982.38
2019-06-01T19:47:48.093Z,982.39
2019-06-01T19:48:48.024Z,982.38
2019-06-01T19:49:47.952Z,982.39
2019-06-01T19:50:47.879Z,982.36
2019-06-01T19:51:47.815Z,982.34
2019-06-01T19:52:47.732Z,982.38
2019-06-01T19:53:47.664Z,982.38
2019-06-01T19:54:47.590Z,982.36
2019-06-01T19:55:47.517Z,982.41
2019-06-01T19:56:47.453Z,982.38
2019-06-01T19:57:47.373Z,982.39
2019-06-01T19:58:47.300Z,982.36
2019-06-01T19:59:47.251Z,982.39
2019-06-01T20:00:47.157Z,982.39
2019-06-01T20:01:47.086Z,982.37
2019-06-01T20:02:47.014Z,982.36
2019-06-01T20:03:46.940Z,982.40
2019-06-01T20:04:46.867Z,982.41
2019-06-01T20:05:46.798Z,982.38
2019-06-01T20:06:46.725Z,982.42
2019-06-01T20:07:46.653Z,982.44
2019-06-01T20:08:46.574Z,982.44
2019-06-01T20:09:46.507Z,982.44
2019-06-01T20:10:46.434Z,982.46
2019-06-01T20:12:01.023Z,982.49
2019-06-01T20:12:46.292Z,982.49
2019-06-01T20:13:46.217Z,982.50
2019-06-01T20:14:46.144Z,982.47
2019-06-01T20:15:46.075Z,982.48
2019-06-01T20:16:46.000Z,982.46
2019-06-01T20:17:45.928Z,982.48
2019-06-01T20:18:45.853Z,982.42
2019-06-01T20:19:45.782Z,982.44
2019-06-01T20:20:45.710Z,982.45
2019-06-01T20:21:45.637Z,982.44
2019-06-01T20:22:45.567Z,982.44
2019-06-01T20:23:45.489Z,982.43
2019-06-01T20:24:45.417Z,982.42
2019-06-01T20:25:45.348Z,982.42
2019-06-01T20:26:49.174Z,982.40
2019-06-01T20:27:45.200Z,982.45
2019-06-01T20:28:45.129Z,982.46
2019-06-01T20:29:45.055Z,982.48
2019-06-01T20:30:44.983Z,982.47
2019-06-01T20:31:44.912Z,982.46
2019-06-01T20:32:44.838Z,982.46
2019-06-01T20:33:44.764Z,982.47
2019-06-01T20:34:44.693Z,982.45
2019-06-01T20:35:44.616Z,982.46
2019-06-01T20:36:44.545Z,982.49
2019-06-01T20:37:44.472Z,982.47
2019-06-01T20:38:44.399Z,982.47
2019-06-01T20:39:44.324Z,982.46
2019-06-01T20:40:44.251Z,982.48
2019-06-01T20:41:44.177Z,982.52
2019-06-01T20:42:44.107Z,982.48
2019-06-01T20:43:44.034Z,982.48
2019-06-01T20:44:43.961Z,982.52
2019-06-01T20:45:43.896Z,982.45
2019-06-01T20:46:43.816Z,982.47
2019-06-01T20:47:43.741Z,982.49
2019-06-01T20:48:43.671Z,982.49
2019-06-01T20:49:43.595Z,982.53
2019-06-01T20:50:43.523Z,982.53
2019-06-01T20:51:43.450Z,982.53
2019-06-01T20:52:43.373Z,982.54
2019-06-01T20:53:43.308Z,982.55
2019-06-01T20:54:43.232Z,982.53
2019-06-01T20:55:43.160Z,982.57
2019-06-01T20:56:43.086Z,982.59
2019-06-01T20:57:43.010Z,982.59
2019-06-01T20:58:42.935Z,982.56
2019-06-01T20:59:42.864Z,982.59
2019-06-01T21:00:42.788Z,982.58
2019-06-01T21:01:42.716Z,982.61
2019-06-01T21:02:42.638Z,982.57
2019-06-01T21:03:42.567Z,982.61
2019-06-01T21:04:42.498Z,982.62
2019-06-01T21:05:42.423Z,982.63
2019-06-01T21:06:42.349Z,982.68
2019-06-01T21:07:42.281Z,982.66
2019-06-01T21:08:42.206Z,982.66
2019-06-01T21:09:42.130Z,982.69
2019-06-01T21:10:42.056Z,982.69
2019-06-01T21:11:41.982Z,982.66
2019-06-01T21:12:45.491Z,982.68
2019-06-01T21:13:41.838Z,982.69
2019-06-01T21:14:41.764Z,982.68
2019-06-01T21:15:41.689Z,982.71
2019-06-01T21:16:41.617Z,982.69
2019-06-01T21:17:41.541Z,982.66
2019-06-01T21:18:41.470Z,982.66
2019-06-01T21:19:41.398Z,982.66
2019-06-01T21:20:41.323Z,982.67
2019-06-01T21:21:41.245Z,982.69
2019-06-01T21:22:41.174Z,982.70
2019-06-01T21:23:41.101Z,982.77
2019-06-01T21:24:41.028Z,982.75
2019-06-01T21:25:40.955Z,982.81
2019-06-01T21:26:40.882Z,982.76
2019-06-01T21:27:40.810Z,982.78
2019-06-01T21:28:40.734Z,982.77
2019-06-01T21:29:40.665Z,982.78
2019-06-01T21:30:40.586Z,982.80
2019-06-01T21:31:40.514Z,982.79
2019-06-01T21:32:40.442Z,982.82
2019-06-01T21:33:40.367Z,982.80
2019-06-01T21:34:40.288Z,982.77
2019-06-01T21:35:40.216Z,982.84
2019-06-01T21:36:41.791Z,982.85
2019-06-01T21:37:40.069Z,982.86
2019-06-01T21:38:39.993Z,982.83
2019-06-01T21:39:39.921Z,982.86
2019-06-01T21:40:39.848Z,982.86
2019-06-01T21:41:39.774Z,982.84
2019-06-01T21:42:40.246Z,982.85
2019-06-01T21:43:39.629Z,982.83
2019-06-01T21:44:39.552Z,982.85
2019-06-01T21:45:39.480Z,982.87
2019-06-01T21:46:39.406Z,982.86
2019-06-01T21:47:39.333Z,982.84
2019-06-01T21:48:39.256Z,982.87
2019-06-01T21:49:39.182Z,982.85
2019-06-01T21:50:39.109Z,982.86
2019-06-01T21:51:39.034Z,982.87
2019-06-01T21:52:38.959Z,982.87
2019-06-01T21:53:38.885Z,982.86
2019-06-01T21:54:38.816Z,982.84
2019-06-01T21:55:38.739Z,982.90
2019-06-01T21:56:38.666Z,982.86
2019-06-01T21:57:38.592Z,982.86
2019-06-01T21:58:38.516Z,982.85
2019-06-01T21:59:38.444Z,982.85
2019-06-01T22:00:38.374Z,982.82
2019-06-01T22:01:38.295Z,982.83
2019-06-01T22:02:38.227Z,982.85
2019-06-01T22:03:38.147Z,982.83
2019-06-01T22:04:38.073Z,982.84
2019-06-01T22:05:38.008Z,982.82
2019-06-01T22:06:37.949Z,982.81
2019-06-01T22:07:37.853Z,982.82
2019-06-01T22:08:37.774Z,982.80
2019-06-01T22:09:37.699Z,982.80
2019-06-01T22:10:37.630Z,982.77
2019-06-01T22:11:37.555Z,982.79
2019-06-01T22:12:37.478Z,982.78
2019-06-01T22:13:37.408Z,982.78
2019-06-01T22:14:37.330Z,982.77
2019-06-01T22:15:37.256Z,982.78
2019-06-01T22:16:37.187Z,982.78
2019-06-01T22:17:37.110Z,982.79
2019-06-01T22:18:37.034Z,982.82
2019-06-01T22:19:36.960Z,982.83
2019-06-01T22:20:36.882Z,982.84
2019-06-01T22:21:36.811Z,982.84
2019-06-01T22:22:36.744Z,982.82
2019-06-01T22:23:36.663Z,982.81
2019-06-01T22:24:36.586Z,982.84
2019-06-01T22:25:36.513Z,982.83
2019-06-01T22:26:36.434Z,982.82
2019-06-01T22:27:36.367Z,982.82
2019-06-01T22:28:36.312Z,982.80
2019-06-01T22:29:36.215Z,982.79
2019-06-01T22:30:36.144Z,982.79
2019-06-01T22:31:36.066Z,982.77
2019-06-01T22:32:35.995Z,982.76